Main page
METAR-TAF:

METAR-TAF

Airports :

Bom Jesus da Lapa Airport

Bom Jesus da Lapa, Bahia, Brazil

latitude: 13-16S, longitude: 043-25W, elevation: 440 m

Current weather observation

The report was made 29 minutes ago, at 14:00 UTC
Wind 4 kt from the West/Southwest
Temperature 33°C
Humidity 46%
Pressure
Visibility 10 km or more
Few clouds at a height of 3000 ft

METAR: SBLP 141400Z 24004KT 9999 FEW030 33/20 Q////

Time: 12:29 (14:29 UTC)

Forecast

The report was made 4 hours and 29 minutes ago, at 10:00 UTC
Forecast valid from 14 at 12 UTC to 14 at 24 UTC
Wind 5 kt from the East/Southeast
Visibility 10 km or more
Scattered clouds at a height of 3000 ft
Temporary
from 14 at 20 UTC to 14 at 22 UTC
Scattered clouds at a height of 2500 ft
Few clouds at a height of 3000 ft, Cumulonimbus.
thunderstorm

TAF: SBLP 141000Z 1412/1424 12005KT 9999 SCT030 TN28/1412Z TX33/1418Z TEMPO 1420/1422 TS SCT025 FEW030CB RMK PCN

Weather observations and forecasts of more than 4000 airports (METAR and TAF reports).

The available stations are represented by yellow and red dots on the map.

Hover mouse over dot to see the name of the station.

Then click to see weather observations and forecasts.

To change the map : click on the green buttons with a black cross to zoom in, on the green button with a dash to zoom out, or on the green arrows for adjacent maps.


METAR-TAF: